Time;durP1;ratioP1;P1;durP2;ratioP2;P2;SDS_P1;SDS_P2;PMS_P1;PMS_P2;Temp;Humidity;BMP_temperature;BMP_pressure;BME280_temperature;BME280_humidity;BME280_pressure;Samples;Min_cycle;Max_cycle;Signal;HPM_P1;HPM_P2
2020/12/16 00:03:56;;;;;;;10.38;1.40;;;;;;;9.67;80.78;99443.28;4873365;29;20143;-75
2020/12/16 00:06:29;;;;;;;2.25;0.65;;;;;;;9.60;80.94;99414.38;4882417;29;20012;-73
2020/12/16 00:08:54;;;;;;;4.03;1.08;;;;;;;9.65;81.18;99442.75;4889603;29;20360;-74
2020/12/16 00:11:20;;;;;;;11.23;1.48;;;;;;;9.57;81.39;99442.25;4921476;29;20047;-72
2020/12/16 00:13:45;;;;;;;16.30;2.47;;;;;;;9.67;81.10;99448.75;4915223;29;20027;-73
2020/12/16 00:16:13;;;;;;;3.70;0.90;;;;;;;9.64;80.53;99430.19;4924782;29;20031;-72
2020/12/16 00:18:47;;;;;;;17.67;1.85;;;;;;;9.74;81.31;99443.78;4908576;29;20051;-74
2020/12/16 00:21:13;;;;;;;7.57;1.13;;;;;;;9.78;80.19;99447.56;4918309;29;20531;-72
2020/12/16 00:23:43;;;;;;;13.82;0.90;;;;;;;9.80;80.65;99445.38;4904684;29;20097;-72
2020/12/16 00:26:12;;;;;;;7.28;1.40;;;;;;;9.83;80.75;99450.25;4900898;29;20087;-74
2020/12/16 00:28:43;;;;;;;8.00;1.30;;;;;;;9.78;80.64;99444.81;4901637;29;20046;-79
2020/12/16 00:31:17;;;;;;;10.95;1.35;;;;;;;9.86;80.03;99448.88;4911662;29;20378;-77
2020/12/16 00:33:52;;;;;;;;;;;;;;;;;;;;;
2020/12/16 00:36:18;;;;;;;11.25;1.15;;;;;;;9.82;79.77;99432.25;4924944;29;20035;-78
2020/12/16 00:38:47;;;;;;;5.03;1.02;;;;;;;9.91;79.76;99430.50;4922201;29;20119;-78
2020/12/16 00:41:12;;;;;;;8.13;1.42;;;;;;;9.85;80.05;99415.28;4909552;29;20036;-78
2020/12/16 00:43:53;;;;;;;;;;;;;;;;;;;;;
2020/12/16 00:46:23;;;;;;;6.38;1.23;;;;;;;9.84;79.27;99419.13;4906540;29;20038;-79
2020/12/16 00:48:51;;;;;;;7.35;0.98;;;;;;;9.83;80.04;99392.91;4899055;29;20066;-77
2020/12/16 00:51:17;;;;;;;5.85;1.02;;;;;;;9.90;79.72;99409.78;4896690;29;20034;-77
2020/12/16 00:53:42;;;;;;;12.10;1.63;;;;;;;9.89;79.90;99393.69;4908189;29;20531;-77
2020/12/16 00:56:08;;;;;;;11.32;1.60;;;;;;;10.00;79.61;99438.09;4914230;29;20044;-80
2020/12/16 00:58:34;;;;;;;8.43;1.35;;;;;;;10.00;79.48;99432.63;4913618;29;20123;-79
2020/12/16 01:00:59;;;;;;;4.22;1.20;;;;;;;9.94;79.32;99408.13;4909380;29;20122;-80
2020/12/16 01:03:32;;;;;;;5.35;1.08;;;;;;;10.01;79.13;99418.69;4901471;29;20039;-79
2020/12/16 01:06:00;;;;;;;10.25;1.48;;;;;;;9.95;79.28;99420.66;4920011;29;20114;-78
2020/12/16 01:08:25;;;;;;;3.85;1.20;;;;;;;10.01;79.76;99428.81;4924640;29;20095;-79
2020/12/16 01:10:51;;;;;;;3.47;1.50;;;;;;;9.87;79.84;99417.72;4895054;29;20095;-75
2020/12/16 01:13:16;;;;;;;9.40;1.30;;;;;;;9.91;79.46;99397.75;4930942;29;20028;-77
2020/12/16 01:15:44;;;;;;;8.18;1.20;;;;;;;10.01;79.76;99406.97;4901788;29;20036;-77
2020/12/16 01:18:10;;;;;;;10.07;1.38;;;;;;;10.06;79.04;99401.44;4925805;29;20376;-76
2020/12/16 01:20:36;;;;;;;3.78;0.98;;;;;;;10.06;78.85;99395.97;4926412;29;20137;-76
2020/12/16 01:23:06;;;;;;;13.50;1.80;;;;;;;9.99;79.24;99395.50;4923469;29;20032;-78
2020/12/16 01:25:32;;;;;;;10.27;1.13;;;;;;;9.98;79.01;99413.00;4920065;29;20363;-75
2020/12/16 01:27:59;;;;;;;8.68;1.92;;;;;;;9.95;78.37;99382.41;4915489;29;20039;-75
2020/12/16 01:30:28;;;;;;;7.78;1.45;;;;;;;9.96;78.84;99362.22;4913044;29;20059;-75
2020/12/16 01:32:55;;;;;;;5.95;1.17;;;;;;;9.89;78.93;99371.84;4931031;29;20023;-75
2020/12/16 01:35:21;;;;;;;12.15;2.60;;;;;;;9.96;78.29;99400.44;4912737;29;20032;-75
2020/12/16 01:37:49;;;;;;;7.30;1.33;;;;;;;9.98;78.70;99372.84;4907097;29;20089;-74
2020/12/16 01:40:14;;;;;;;8.93;1.17;;;;;;;9.98;78.58;99380.22;4902769;29;20047;-75
2020/12/16 01:42:40;;;;;;;16.38;1.42;;;;;;;9.99;78.78;99377.22;4928592;29;20032;-75
2020/12/16 01:45:07;;;;;;;7.93;1.10;;;;;;;9.94;79.03;99383.53;4931685;29;20096;-74
2020/12/16 01:47:34;;;;;;;17.52;1.70;;;;;;;9.88;79.78;99360.09;4935803;29;20036;-74
2020/12/16 01:50:00;;;;;;;7.15;1.60;;;;;;;9.92;79.13;99372.06;4932707;29;20434;-74
2020/12/16 01:52:27;;;;;;;9.45;1.10;;;;;;;9.91;79.06;99356.78;4928155;29;20059;-74
2020/12/16 01:54:54;;;;;;;12.15;1.60;;;;;;;9.92;78.97;99376.72;4915663;29;20079;-74
2020/12/16 01:57:22;;;;;;;7.32;0.95;;;;;;;9.94;79.51;99390.91;4909469;29;20608;-74
2020/12/16 01:59:50;;;;;;;5.90;1.10;;;;;;;9.90;78.98;99396.13;4918955;29;20064;-74
2020/12/16 02:02:18;;;;;;;2.88;1.17;;;;;;;9.93;79.39;99379.19;4913117;29;20036;-75
2020/12/16 02:04:46;;;;;;;9.68;1.00;;;;;;;9.98;78.99;99385.69;4921976;29;20091;-74
2020/12/16 02:07:13;;;;;;;9.32;1.10;;;;;;;9.98;79.24;99391.16;4918704;29;20024;-74
2020/12/16 02:09:46;;;;;;;11.15;1.30;;;;;;;9.92;79.45;99393.91;4915277;29;20533;-75
2020/12/16 02:12:13;;;;;;;8.90;1.50;;;;;;;9.92;79.48;99383.00;4909093;29;20031;-76
2020/12/16 02:14:40;;;;;;;9.13;1.20;;;;;;;9.93;79.22;99379.19;4914854;29;20050;-75
2020/12/16 02:17:07;;;;;;;3.85;1.10;;;;;;;9.97;79.19;99373.94;4928109;29;20031;-76
2020/12/16 02:19:38;;;;;;;9.35;1.75;;;;;;;10.02;78.34;99393.03;4923188;29;20051;-76
2020/12/16 02:22:07;;;;;;;8.65;1.83;;;;;;;10.00;78.29;99381.56;4925631;29;20032;-77
2020/12/16 02:24:38;;;;;;;6.80;1.27;;;;;;;10.00;78.95;99380.75;4912437;29;20383;-76
2020/12/16 02:27:03;;;;;;;12.15;2.08;;;;;;;10.01;78.51;99390.59;4926028;29;20032;-76
2020/12/16 02:29:29;;;;;;;9.73;1.42;;;;;;;10.01;79.14;99368.72;4921564;29;20046;-75
2020/12/16 02:31:55;;;;;;;6.45;1.90;;;;;;;10.03;78.89;99383.72;4929150;29;20490;-76
2020/12/16 02:34:21;;;;;;;5.43;1.38;;;;;;;10.04;78.57;99376.34;4907104;29;20067;-76
2020/12/16 02:36:46;;;;;;;8.98;1.20;;;;;;;10.05;78.31;99372.53;4927573;29;20124;-77
2020/12/16 02:39:12;;;;;;;7.10;0.98;;;;;;;10.06;78.15;99357.75;4914389;29;20430;-77
2020/12/16 02:41:37;;;;;;;6.82;1.50;;;;;;;10.03;78.63;99364.63;4923946;29;20075;-77
2020/12/16 02:44:03;;;;;;;7.32;1.33;;;;;;;10.06;78.27;99379.59;4922561;29;20459;-77
2020/12/16 02:46:28;;;;;;;9.13;1.40;;;;;;;10.10;77.96;99367.00;4925308;29;20028;-76
2020/12/16 02:48:54;;;;;;;7.00;1.10;;;;;;;10.11;77.86;99357.69;4899222;29;20485;-76
2020/12/16 02:51:19;;;;;;;17.27;1.90;;;;;;;10.13;78.32;99359.06;4899198;29;20505;-77
2020/12/16 02:53:44;;;;;;;3.80;0.70;;;;;;;10.17;78.14;99367.47;4913978;29;20028;-74
2020/12/16 02:56:10;;;;;;;9.15;0.88;;;;;;;10.18;77.84;99358.19;4921726;29;20122;-75
2020/12/16 02:58:43;;;;;;;7.90;1.13;;;;;;;10.17;77.45;99345.63;4905779;29;20177;-75
2020/12/16 03:01:08;;;;;;;6.28;0.70;;;;;;;10.20;77.59;99369.63;4917639;29;20051;-74
2020/12/16 03:03:34;;;;;;;4.78;1.42;;;;;;;10.16;77.55;99375.94;4917289;29;20023;-75
2020/12/16 03:05:59;;;;;;;13.32;1.33;;;;;;;10.07;76.95;99373.03;4922348;29;20035;-76
2020/12/16 03:08:24;;;;;;;14.35;1.48;;;;;;;10.11;77.44;99363.16;4915989;29;20051;-76
2020/12/16 03:10:50;;;;;;;11.55;1.45;;;;;;;10.07;77.88;99340.25;4910406;29;20054;-75
2020/12/16 03:13:15;;;;;;;6.43;0.98;;;;;;;10.13;77.68;99367.25;4930875;29;20359;-75
2020/12/16 03:15:41;;;;;;;16.58;1.95;;;;;;;10.06;77.43;99339.44;4891950;29;20043;-75
2020/12/16 03:18:06;;;;;;;4.97;1.33;;;;;;;10.06;77.17;99333.16;4928424;29;20512;-74
2020/12/16 03:20:34;;;;;;;9.40;1.55;;;;;;;10.04;77.51;99335.38;4894066;29;20020;-75
2020/12/16 03:22:59;;;;;;;4.13;1.15;;;;;;;10.06;77.75;99344.91;4905585;29;20062;-75
2020/12/16 03:25:25;;;;;;;5.50;1.23;;;;;;;10.11;77.27;99341.31;4898092;29;20023;-76
2020/12/16 03:27:50;;;;;;;8.88;1.20;;;;;;;10.09;77.93;99335.31;4920503;29;20059;-76
2020/12/16 03:30:16;;;;;;;6.63;0.85;;;;;;;10.11;76.91;99333.13;4915462;29;20039;-76
2020/12/16 03:32:41;;;;;;;10.38;1.60;;;;;;;10.10;78.00;99339.66;4914826;29;20036;-75
2020/12/16 03:35:06;;;;;;;5.35;1.13;;;;;;;10.12;77.42;99337.47;4927331;29;20126;-77
2020/12/16 03:37:32;;;;;;;5.38;1.10;;;;;;;10.12;77.44;99332.03;4932691;28;20032;-76
2020/12/16 03:39:57;;;;;;;9.60;1.27;;;;;;;10.18;77.54;99333.59;4898361;29;20071;-77
2020/12/16 03:42:23;;;;;;;13.00;1.60;;;;;;;10.12;77.84;99324.63;4917133;29;20489;-76
2020/12/16 03:44:48;;;;;;;10.15;0.90;;;;;;;10.11;77.78;99308.53;4916313;29;20064;-76
2020/12/16 03:47:15;;;;;;;7.40;1.45;;;;;;;10.14;77.26;99316.94;4908395;29;20028;-76
2020/12/16 03:49:41;;;;;;;14.65;1.27;;;;;;;10.15;77.74;99306.84;4925701;29;20036;-77
2020/12/16 03:52:06;;;;;;;6.70;1.65;;;;;;;10.15;77.80;99309.59;4911981;29;20123;-77
2020/12/16 03:54:31;;;;;;;12.55;1.60;;;;;;;10.11;77.37;99305.81;4925098;29;20081;-77
2020/12/16 03:56:57;;;;;;;12.30;1.20;;;;;;;10.10;77.70;99307.72;4915607;29;20046;-77
2020/12/16 03:59:22;;;;;;;11.85;1.15;;;;;;;10.04;78.13;99321.72;4920024;29;20066;-76
2020/12/16 04:01:50;;;;;;;11.18;1.48;;;;;;;10.07;78.37;99318.41;4913635;29;20019;-76
2020/12/16 04:04:16;;;;;;;16.60;1.80;;;;;;;10.01;77.51;99289.53;4923706;29;20607;-76
2020/12/16 04:06:41;;;;;;;14.32;1.63;;;;;;;9.98;78.03;99293.66;4918143;29;20123;-78
2020/12/16 04:09:07;;;;;;;10.02;1.60;;;;;;;9.98;78.01;99295.56;4899636;29;20023;-77
2020/12/16 04:11:32;;;;;;;7.72;1.52;;;;;;;9.96;77.80;99277.53;4910856;29;20131;-76
2020/12/16 04:13:58;;;;;;;3.30;0.98;;;;;;;9.96;77.71;99302.13;4913805;29;20043;-76
2020/12/16 04:16:24;;;;;;;9.02;1.83;;;;;;;9.96;77.95;99291.19;4912065;29;20024;-76
2020/12/16 04:18:50;;;;;;;19.15;1.20;;;;;;;9.95;77.57;99300.50;4920998;29;20040;-76
2020/12/16 04:21:18;;;;;;;8.60;1.63;;;;;;;9.99;77.52;99294.44;4931779;29;20470;-76
2020/12/16 04:23:44;;;;;;;3.65;1.10;;;;;;;9.96;77.54;99291.19;4920367;29;20043;-76
2020/12/16 04:26:10;;;;;;;7.32;1.67;;;;;;;9.95;77.58;99284.09;4927448;29;20035;-76
2020/12/16 04:28:36;;;;;;;8.95;1.35;;;;;;;9.99;77.45;99288.97;4936726;29;20027;-76
2020/12/16 04:31:04;;;;;;;4.75;0.80;;;;;;;9.95;77.10;99299.69;4944590;29;20036;-76
2020/12/16 04:33:29;;;;;;;7.57;0.98;;;;;;;9.94;77.92;99296.16;4941788;28;20028;-76
2020/12/16 04:35:55;;;;;;;7.75;1.70;;;;;;;9.91;77.82;99307.63;4917100;29;20035;-76
2020/12/16 04:38:20;;;;;;;11.57;0.90;;;;;;;9.96;77.33;99293.94;4920450;29;20039;-76
2020/12/16 04:40:48;;;;;;;10.00;1.27;;;;;;;9.91;77.73;99315.81;4898435;29;20020;-75
2020/12/16 04:43:22;;;;;;;5.03;1.20;;;;;;;9.88;77.91;99321.88;4894143;29;20039;-75
2020/12/16 04:45:49;;;;;;;7.65;1.45;;;;;;;9.89;78.23;99307.13;4921865;29;20031;-76
2020/12/16 04:48:16;;;;;;;8.38;1.33;;;;;;;9.86;77.66;99296.78;4912263;29;20495;-76
2020/12/16 04:50:43;;;;;;;9.73;1.20;;;;;;;9.85;78.46;99300.59;4914530;29;20485;-76
2020/12/16 04:53:15;;;;;;;4.20;1.08;;;;;;;9.88;78.24;99293.75;4931963;28;20047;-76
2020/12/16 04:55:42;;;;;;;5.93;1.00;;;;;;;9.86;78.04;99288.59;4919774;29;20382;-76
2020/12/16 04:58:09;;;;;;;6.00;1.23;;;;;;;9.85;78.07;99305.25;4913895;29;20036;-76
2020/12/16 05:00:35;;;;;;;7.97;1.25;;;;;;;9.79;78.37;99282.66;4928671;28;20403;-76
2020/12/16 05:03:06;;;;;;;8.68;1.10;;;;;;;9.76;78.42;99291.41;4899921;29;20095;-76
2020/12/16 05:05:34;;;;;;;7.70;1.10;;;;;;;9.76;79.23;99307.78;4927076;29;20020;-75
2020/12/16 05:08:15;;;;;;;9.73;1.83;;;;;;;9.65;79.24;99300.81;4926560;29;20072;-74
2020/12/16 05:10:43;;;;;;;6.47;0.90;;;;;;;9.64;79.38;99288.25;4923591;29;20030;-74
2020/12/16 05:13:17;;;;;;;10.07;1.15;;;;;;;9.61;79.84;99284.19;4908616;29;20082;-74
2020/12/16 05:15:44;;;;;;;4.80;0.93;;;;;;;9.58;80.91;99291.03;4909440;29;20027;-73
2020/12/16 05:18:13;;;;;;;6.32;1.05;;;;;;;9.51;80.03;99274.19;4920788;29;20043;-73
2020/12/16 05:20:44;;;;;;;8.32;1.33;;;;;;;9.54;80.99;99268.16;4925839;29;20020;-73
2020/12/16 05:23:10;;;;;;;7.72;1.15;;;;;;;9.50;80.29;99269.81;4919461;29;20035;-74
2020/12/16 05:25:37;;;;;;;8.52;1.20;;;;;;;9.52;80.87;99267.63;4909164;29;20458;-75
2020/12/16 05:28:03;;;;;;;7.32;1.42;;;;;;;9.49;80.23;99279.13;4914087;29;20042;-75
2020/12/16 05:30:29;;;;;;;5.75;1.45;;;;;;;9.50;80.08;99272.53;4922225;29;20036;-75
2020/12/16 05:32:59;;;;;;;5.28;0.80;;;;;;;9.56;79.63;99271.41;4920163;29;20051;-74
2020/12/16 05:35:34;;;;;;;3.85;1.05;;;;;;;9.57;79.96;99245.72;4927744;29;20028;-74
2020/12/16 05:38:10;;;;;;;12.37;0.97;;;;;;;9.56;80.22;99244.13;4923179;29;20039;-74
2020/12/16 05:40:38;;;;;;;6.78;1.08;;;;;;;9.57;79.99;99262.09;4915917;29;20028;-74
2020/12/16 05:43:04;;;;;;;7.97;1.83;;;;;;;9.59;79.61;99259.91;4916536;29;20561;-74
2020/12/16 05:45:31;;;;;;;10.35;1.70;;;;;;;9.60;79.08;99250.59;4913124;29;20045;-74
2020/12/16 05:47:57;;;;;;;4.72;0.65;;;;;;;9.68;79.47;99240.16;4896322;29;21836;-74
2020/12/16 05:50:24;;;;;;;6.85;1.55;;;;;;;9.69;79.34;99253.53;4921276;29;20078;-74
2020/12/16 05:53:06;;;;;;;7.60;1.42;;;;;;;9.70;78.85;99244.25;4927958;29;20393;-74
2020/12/16 05:55:31;;;;;;;14.43;1.58;;;;;;;9.76;78.24;99253.19;4922708;29;20055;-75
2020/12/16 05:58:14;;;;;;;8.32;1.02;;;;;;;9.73;78.29;99259.25;4909226;29;20064;-75
2020/12/16 06:00:42;;;;;;;9.07;1.15;;;;;;;9.79;77.76;99279.91;4891771;29;20131;-75
2020/12/16 06:03:17;;;;;;;8.18;1.35;;;;;;;9.83;78.04;99280.97;4916413;29;20036;-76
2020/12/16 06:05:47;;;;;;;7.85;1.23;;;;;;;9.84;77.46;99268.13;4918056;29;20550;-75
2020/12/16 06:08:13;;;;;;;2.72;0.68;;;;;;;9.89;77.19;99268.88;4921173;29;20031;-74
2020/12/16 06:10:42;;;;;;;12.05;1.20;;;;;;;9.89;77.86;99257.97;4911356;29;20029;-75
2020/12/16 06:13:12;;;;;;;8.27;1.67;;;;;;;9.91;77.84;99276.78;4926064;29;20061;-74
2020/12/16 06:15:52;;;;;;;9.93;1.17;;;;;;;9.94;77.52;99257.91;4918965;29;20034;-75
2020/12/16 06:18:19;;;;;;;14.43;1.67;;;;;;;9.90;77.06;99259.59;4918966;29;20030;-74
2020/12/16 06:20:45;;;;;;;4.97;1.05;;;;;;;9.91;76.74;99254.94;4920128;29;20364;-74
2020/12/16 06:23:29;;;;;;;5.25;0.98;;;;;;;9.88;76.83;99245.41;4909711;29;20032;-75
2020/12/16 06:25:57;;;;;;;4.18;0.68;;;;;;;9.83;76.68;99248.22;4920383;29;20059;-76
2020/12/16 06:28:23;;;;;;;5.82;1.05;;;;;;;9.86;77.03;99236.69;4922861;29;20023;-75
2020/12/16 06:30:58;;;;;;;6.20;0.82;;;;;;;9.91;76.03;99238.56;4912939;29;20043;-75
2020/12/16 06:33:39;;;;;;;14.10;1.02;;;;;;;9.89;76.05;99247.03;4920718;29;20093;-74
2020/12/16 06:36:07;;;;;;;6.47;1.10;;;;;;;9.87;76.61;99253.88;4929743;29;20032;-75
2020/12/16 06:38:41;;;;;;;4.50;0.77;;;;;;;9.92;75.74;99251.91;4920964;29;20119;-76
2020/12/16 06:41:41;;;;;;;5.07;0.90;;;;;;;9.96;76.32;99261.16;4909210;29;20479;-76
2020/12/16 06:44:14;;;;;;;2.63;1.15;;;;;;;9.94;75.44;99255.19;4902948;29;20139;-80
2020/12/16 06:46:42;;;;;;;7.03;1.08;;;;;;;10.02;75.50;99261.91;4904104;29;20024;-73
2020/12/16 06:49:14;;;;;;;6.07;0.98;;;;;;;10.05;75.98;99260.53;4918527;29;20473;-72
2020/12/16 06:51:45;;;;;;;6.38;1.73;;;;;;;10.05;75.30;99272.25;4922617;29;20094;-73
2020/12/16 06:54:13;;;;;;;5.88;1.63;;;;;;;10.05;75.47;99260.53;4903214;29;20119;-74
2020/12/16 06:56:40;;;;;;;4.10;0.95;;;;;;;10.04;75.47;99258.91;4914607;29;20086;-80
2020/12/16 06:59:06;;;;;;;12.38;1.52;;;;;;;10.04;75.25;99267.09;4917927;29;20040;-81
2020/12/16 07:01:32;;;;;;;5.65;1.13;;;;;;;10.03;75.71;99257.25;4921631;28;20376;-80
2020/12/16 07:03:58;;;;;;;2.42;1.60;;;;;;;10.01;75.95;99257.56;4891943;29;20049;-81
2020/12/16 07:06:32;;;;;;;2.30;0.88;;;;;;;10.00;75.94;99257.84;4908691;29;20096;-80
2020/12/16 07:09:15;;;;;;;8.82;1.73;;;;;;;10.01;75.91;99281.34;4913533;29;20023;-82
2020/12/16 07:11:43;;;;;;;5.05;1.05;;;;;;;9.94;75.25;99260.66;4925437;29;20028;-80
2020/12/16 07:14:18;;;;;;;7.43;0.98;;;;;;;9.99;75.45;99256.22;4915564;29;20500;-80
2020/12/16 07:16:45;;;;;;;2.25;0.80;;;;;;;9.99;75.02;99256.22;4933310;29;20044;-79
2020/12/16 07:19:13;;;;;;;12.50;2.10;;;;;;;9.98;75.41;99255.41;4900921;29;20091;-79
2020/12/16 07:21:39;;;;;;;4.93;1.10;;;;;;;10.04;75.06;99253.44;4913385;29;20502;-82
2020/12/16 07:24:13;;;;;;;2.28;0.75;;;;;;;9.99;74.87;99245.28;4916791;29;20035;-77
2020/12/16 07:26:56;;;;;;;14.00;1.85;;;;;;;10.04;74.77;99264.34;4920196;29;20101;-79
2020/12/16 07:29:25;;;;;;;9.20;1.52;;;;;;;10.01;74.89;99254.03;4913000;29;20051;-79
2020/12/16 07:32:13;;;;;;;10.20;0.98;;;;;;;10.01;74.68;99246.63;4919563;29;20032;-79
2020/12/16 07:34:55;;;;;;;9.90;1.88;;;;;;;10.08;74.67;99254.50;4928719;29;20024;-80
2020/12/16 07:37:27;;;;;;;7.95;1.10;;;;;;;10.05;74.80;99238.69;4924565;29;20039;-79
2020/12/16 07:39:58;;;;;;;6.20;1.90;;;;;;;10.13;74.35;99247.03;4920069;29;20533;-79
2020/12/16 07:42:32;;;;;;;8.65;1.00;;;;;;;10.17;74.62;99241.81;4913596;29;20031;-78
2020/12/16 07:45:00;;;;;;;3.55;0.55;;;;;;;10.15;74.66;99235.81;4922502;29;20034;-77
2020/12/16 07:47:26;;;;;;;7.57;1.08;;;;;;;10.23;74.07;99251.56;4925360;29;20039;-72
2020/12/16 07:49:52;;;;;;;6.00;1.55;;;;;;;10.26;74.00;99264.63;5040044;23;20053;-72
2020/12/16 07:52:26;;;;;;;3.90;1.17;;;;;;;10.27;74.44;99274.47;4893949;29;20037;-80
2020/12/16 07:54:54;;;;;;;5.50;0.90;;;;;;;10.26;74.31;99281.03;4916870;29;20035;-79
2020/12/16 07:57:34;;;;;;;3.83;1.33;;;;;;;10.26;74.25;99261.88;4913078;29;20028;-78
2020/12/16 08:00:02;;;;;;;5.18;1.40;;;;;;;10.25;73.77;99260.28;4907087;29;20541;-79
2020/12/16 08:02:28;;;;;;;5.38;0.82;;;;;;;10.22;74.03;99265.50;4912693;29;20024;-80
2020/12/16 08:04:58;;;;;;;2.83;1.23;;;;;;;10.26;74.43;99267.34;4898041;29;20052;-78
2020/12/16 08:07:24;;;;;;;3.60;1.15;;;;;;;10.24;73.84;99285.16;4911217;29;20114;-77
2020/12/16 08:09:58;;;;;;;2.03;0.88;;;;;;;10.26;74.45;99278.28;4914106;29;20024;-78
2020/12/16 08:12:25;;;;;;;6.03;0.85;;;;;;;10.19;74.26;99266.94;4899037;29;20070;-78
2020/12/16 08:15:06;;;;;;;5.68;1.15;;;;;;;10.13;74.81;99270.78;4913987;29;20083;-78
2020/12/16 08:17:36;;;;;;;5.82;1.05;;;;;;;10.16;75.35;99277.59;4909779;29;20035;-79
2020/12/16 08:20:11;;;;;;;5.38;1.00;;;;;;;10.06;76.19;99289.44;4890356;29;20032;-78
2020/12/16 08:22:38;;;;;;;;;;;;;;;10.02;76.39;99297.44;4913743;29;20032;-77
2020/12/16 08:25:11;;;;;;;5.22;0.68;;;;;;;9.94;77.13;99287.97;4918032;29;19919;-77
2020/12/16 08:27:38;;;;;;;4.20;1.27;;;;;;;9.79;77.03;99279.91;4893229;29;20463;-76
2020/12/16 08:30:08;;;;;;;3.17;0.77;;;;;;;9.75;78.21;99279.69;4905390;29;20099;-78
2020/12/16 08:32:42;;;;;;;5.18;0.60;;;;;;;9.71;78.81;99283.25;4898164;29;20364;-78
2020/12/16 08:35:17;;;;;;;6.70;1.02;;;;;;;9.63;79.17;99279.25;4895568;29;20482;-75
2020/12/16 08:37:46;;;;;;;5.78;1.02;;;;;;;9.57;79.66;99278.47;4913273;29;20032;-78
2020/12/16 08:40:13;;;;;;;1.48;0.63;;;;;;;9.47;80.19;99291.41;4909888;29;20111;-79
2020/12/16 08:42:38;;;;;;;3.55;0.80;;;;;;;9.41;80.14;99290.66;4916261;29;20115;-79
2020/12/16 08:45:08;;;;;;;6.03;1.25;;;;;;;9.39;80.78;99287.41;4913247;29;20084;-78
2020/12/16 08:47:35;;;;;;;3.70;1.50;;;;;;;9.35;80.86;99286.34;4894363;29;20094;-77
2020/12/16 08:50:02;;;;;;;5.32;1.45;;;;;;;9.31;81.20;99285.28;4915570;29;20476;-77
2020/12/16 08:52:37;;;;;;;6.68;0.98;;;;;;;9.27;81.16;99276.81;4915686;29;20180;-75
2020/12/16 08:55:12;;;;;;;2.50;1.02;;;;;;;9.25;81.55;99271.66;4916232;29;20020;-79
2020/12/16 08:57:37;;;;;;;5.85;1.42;;;;;;;9.20;82.06;99269.00;4915719;29;20035;-77
2020/12/16 09:00:10;;;;;;;8.40;1.08;;;;;;;9.22;82.06;99271.44;4910004;29;20040;-78
2020/12/16 09:02:36;;;;;;;5.30;1.15;;;;;;;9.17;81.64;99272.28;4916969;29;20036;-79
2020/12/16 09:05:01;;;;;;;8.27;1.05;;;;;;;9.17;82.48;99269.56;4917101;29;20039;-79
2020/12/16 09:07:27;;;;;;;6.45;1.60;;;;;;;9.16;82.55;99276.09;4917816;29;20486;-77
2020/12/16 09:09:58;;;;;;;5.60;1.25;;;;;;;9.13;82.42;99276.69;4908516;29;20035;-77
2020/12/16 09:12:24;;;;;;;9.45;1.08;;;;;;;9.15;81.86;99265.47;4903726;29;20042;-77
2020/12/16 09:15:02;;;;;;;5.93;1.23;;;;;;;9.15;82.48;99263.56;4919614;29;20376;-78
2020/12/16 09:17:31;;;;;;;2.70;1.05;;;;;;;9.15;82.89;99260.84;4918714;29;20016;-77
2020/12/16 09:19:57;;;;;;;5.25;1.00;;;;;;;9.18;82.01;99265.72;4922476;29;20035;-78
2020/12/16 09:22:29;;;;;;;9.98;1.58;;;;;;;9.18;81.79;99270.38;4927925;29;20011;-78
2020/12/16 09:24:56;;;;;;;5.55;1.13;;;;;;;9.20;82.18;99258.06;4936521;29;20081;-78
2020/12/16 09:27:21;;;;;;;4.78;0.90;;;;;;;9.18;81.90;99254.81;4930558;29;20008;-77
2020/12/16 09:29:47;;;;;;;5.32;1.67;;;;;;;9.22;82.15;99244.97;4930272;29;20028;-78
2020/12/16 09:32:17;;;;;;;5.22;1.42;;;;;;;9.27;81.49;99246.81;4918741;29;20036;-78
2020/12/16 09:34:45;;;;;;;8.27;1.05;;;;;;;9.29;81.92;99238.34;4919052;29;20035;-78
2020/12/16 09:37:17;;;;;;;1.58;1.00;;;;;;;9.30;81.58;99253.63;4930479;29;20123;-79
2020/12/16 09:39:44;;;;;;;7.47;1.20;;;;;;;9.34;81.71;99257.41;4921269;29;20038;-78
2020/12/16 09:42:11;;;;;;;4.40;0.88;;;;;;;9.39;81.13;99257.38;4921581;29;20116;-79
2020/12/16 09:44:37;;;;;;;5.90;1.13;;;;;;;9.38;79.97;99272.13;4918761;29;20487;-78
2020/12/16 09:47:14;;;;;;;10.63;1.92;;;;;;;9.41;79.98;99282.47;4897645;29;20078;-79
2020/12/16 09:49:41;;;;;;;7.43;0.80;;;;;;;9.41;79.84;99252.44;4900521;29;20073;-79
2020/12/16 09:52:27;;;;;;;5.20;2.08;;;;;;;9.49;80.64;99265.47;4902916;29;20067;-78
2020/12/16 09:54:53;;;;;;;6.82;1.23;;;;;;;9.50;79.30;99266.28;4881693;29;20036;-78
2020/12/16 09:57:22;;;;;;;4.40;1.00;;;;;;;9.56;79.69;99265.13;4903176;29;20120;-78
2020/12/16 09:59:49;;;;;;;6.80;0.95;;;;;;;9.61;79.44;99267.81;4896799;29;20063;-79
2020/12/16 10:02:16;;;;;;;6.30;1.83;;;;;;;9.65;78.48;99273.50;4891714;29;20487;-78
2020/12/16 10:04:41;;;;;;;3.10;0.95;;;;;;;9.67;79.19;99261.19;4904619;29;20452;-78
2020/12/16 10:07:07;;;;;;;2.15;1.33;;;;;;;9.73;78.21;99268.22;4888734;29;20044;-80
2020/12/16 10:09:35;;;;;;;1.98;0.75;;;;;;;9.77;78.33;99266.56;4905678;29;20029;-79
2020/12/16 10:12:02;;;;;;;6.40;1.80;;;;;;;9.73;78.45;99265.50;4891230;29;20040;-79
2020/12/16 10:14:28;;;;;;;4.22;0.98;;;;;;;9.74;78.05;99261.69;4907635;29;20379;-79
2020/12/16 10:16:53;;;;;;;5.30;0.85;;;;;;;9.79;78.60;99269.00;4901564;29;20029;-78
2020/12/16 10:19:19;;;;;;;3.53;1.30;;;;;;;9.80;78.27;99259.72;4889342;29;20390;-79
2020/12/16 10:21:48;;;;;;;2.63;0.98;;;;;;;9.83;78.87;99247.38;4904693;29;20475;-79
2020/12/16 10:24:17;;;;;;;8.90;0.90;;;;;;;9.83;78.40;99256.41;4905362;29;20035;-80
2020/12/16 10:26:49;;;;;;;10.05;1.27;;;;;;;9.73;79.54;99270.97;4894132;29;20032;-80
2020/12/16 10:29:17;;;;;;;6.75;1.83;;;;;;;9.71;80.44;99255.97;4883842;29;20040;-80
2020/12/16 10:31:50;;;;;;;7.00;1.00;;;;;;;9.73;81.14;99245.59;4889222;29;20040;-79
2020/12/16 10:34:16;;;;;;;2.60;1.20;;;;;;;9.67;80.56;99255.75;4899895;29;20024;-79
2020/12/16 10:36:41;;;;;;;7.53;1.80;;;;;;;9.61;81.12;99256.91;4892298;29;20044;-78
2020/12/16 10:39:07;;;;;;;6.93;1.85;;;;;;;9.54;80.90;99240.84;4902046;29;20036;-79
2020/12/16 10:41:32;;;;;;;3.25;1.08;;;;;;;9.51;82.06;99233.25;4903220;29;20035;-80
2020/12/16 10:43:58;;;;;;;7.18;2.05;;;;;;;9.51;81.65;99226.97;4892722;29;20086;-79
2020/12/16 10:46:23;;;;;;;19.42;1.48;;;;;;;9.48;82.47;99231.09;4869990;29;20943;-79
2020/12/16 10:48:49;;;;;;;3.17;1.00;;;;;;;9.35;82.71;99220.84;4884749;29;20048;-80
2020/12/16 10:51:14;;;;;;;4.45;0.95;;;;;;;9.40;82.76;99224.34;4910977;28;20048;-79
2020/12/16 10:53:40;;;;;;;6.10;1.00;;;;;;;9.42;82.61;99229.53;4898163;29;20056;-78
2020/12/16 10:56:05;;;;;;;7.30;0.80;;;;;;;9.43;82.35;99222.94;4902261;29;20043;-79
2020/12/16 10:58:31;;;;;;;9.13;1.20;;;;;;;9.42;82.97;99232.25;4880711;29;20432;-79
2020/12/16 11:00:56;;;;;;;3.78;1.10;;;;;;;9.40;83.48;99228.97;4872854;29;20028;-79
2020/12/16 11:03:21;;;;;;;7.57;1.73;;;;;;;9.34;83.78;99251.97;4909982;29;20083;-79
2020/12/16 11:05:47;;;;;;;6.68;1.67;;;;;;;9.29;84.41;99232.91;4884567;29;20064;-77
2020/12/16 11:08:12;;;;;;;5.55;1.17;;;;;;;9.25;84.41;99232.66;4885213;29;20090;-79
2020/12/16 11:10:38;;;;;;;5.65;1.15;;;;;;;9.25;85.22;99230.75;4890951;29;20043;-79
2020/12/16 11:13:04;;;;;;;7.53;1.08;;;;;;;9.27;85.39;99219.53;4907601;29;20033;-78
2020/12/16 11:15:33;;;;;;;5.13;1.25;;;;;;;9.25;85.65;99217.09;4880091;29;20028;-79
2020/12/16 11:17:58;;;;;;;11.18;1.35;;;;;;;9.24;86.09;99207.31;4884282;29;20048;-80
2020/12/16 11:20:24;;;;;;;4.00;1.15;;;;;;;9.22;86.32;99206.78;4897733;29;20491;-80
2020/12/16 11:22:49;;;;;;;6.25;1.85;;;;;;;9.22;85.98;99205.97;4855945;29;20032;-80
2020/12/16 11:25:15;;;;;;;9.65;1.33;;;;;;;9.20;86.73;99208.97;4896138;29;20083;-80
2020/12/16 11:27:40;;;;;;;13.68;1.70;;;;;;;9.24;86.93;99201.84;4911308;29;20057;-79
2020/12/16 11:30:06;;;;;;;4.13;0.93;;;;;;;9.28;86.82;99190.38;4894024;29;20590;-78
2020/12/16 11:32:31;;;;;;;7.05;1.58;;;;;;;9.30;86.85;99196.34;4897311;29;20060;-79
2020/12/16 11:34:56;;;;;;;13.07;1.63;;;;;;;9.35;86.85;99199.03;4891317;29;20060;-80
2020/12/16 11:37:22;;;;;;;7.40;1.35;;;;;;;9.34;87.73;99200.13;4892948;29;20029;-79
2020/12/16 11:39:48;;;;;;;3.55;1.30;;;;;;;9.40;87.45;99207.16;4872790;29;20028;-80
2020/12/16 11:42:13;;;;;;;7.60;2.05;;;;;;;9.42;87.27;99194.06;4896824;29;20029;-80
2020/12/16 11:44:39;;;;;;;3.38;1.05;;;;;;;9.50;87.19;99201.59;4848376;29;20035;-80
2020/12/16 11:47:06;;;;;;;17.55;1.45;;;;;;;9.51;87.33;99214.13;4897176;29;20048;-81
2020/12/16 11:49:32;;;;;;;5.25;1.83;;;;;;;9.54;87.33;99191.72;4869246;29;20064;-81